EDT,Max TemperatureF,Mean TemperatureF,Min TemperatureF,Max Dew PointF,MeanDew PointF,Min DewpointF,Max Humidity, Mean Humidity, Min Humidity, Max Sea Level PressureIn, Mean Sea Level PressureIn, Min Sea Level PressureIn, Max VisibilityMiles, Mean VisibilityMiles, Min VisibilityMiles, Max Wind SpeedMPH, Mean Wind SpeedMPH, Max Gust SpeedMPH,PrecipitationIn, CloudCover, Events, WindDirDegrees
2013-4-1,44,38,31,34,23,15,76,56,36,30.17,30.05,29.86,10,10,10,21,11,26,0.00,3,,314
2013-4-2,44,35,26,20,17,13,75,54,33,30.31,30.25,30.17,10,10,10,16,7,23,0.00,0,,310
2013-4-3,46,35,24,19,15,13,68,50,31,30.44,30.36,30.30,10,10,10,14,4,25,0.00,0,,67
2013-4-4,55,44,32,31,20,17,70,47,24,30.33,30.15,30.01,10,10,10,12,3,15,0.00,0,,65
2013-4-5,57,47,36,34,28,21,76,54,32,30.15,30.08,29.99,10,10,10,17,5,23,0.00,0,,355
2013-4-6,69,54,38,36,30,25,59,43,26,30.15,30.01,29.82,10,10,10,20,10,29,0.00,1,,150
2013-4-7,71,63,55,45,40,36,57,44,31,29.94,29.88,29.78,10,10,10,22,10,37,T,2,,252
2013-4-8,71,63,55,56,53,47,86,72,57,29.96,29.88,29.83,10,10,10,22,7,30,0.00,6,,196
2013-4-9,78,65,51,58,55,50,96,70,43,29.99,29.93,29.87,10,10,10,26,9,37,0.00,3,,192
2013-4-10,79,68,56,64,61,55,100,79,58,29.90,29.82,29.75,10,10,8,22,9,32,0.08,6,Rain,203
2013-4-11,66,56,45,61,57,48,100,87,73,29.76,29.63,29.56,10,8,4,23,8,29,0.61,7,Rain,199
2013-4-12,45,41,37,46,33,28,89,73,57,29.93,29.74,29.60,10,10,5,22,10,30,T,8,Rain,262
2013-4-13,50,45,40,36,33,30,79,66,53,30.02,29.97,29.93,10,10,10,24,8,31,0.00,7,,259
2013-4-14,71,55,38,44,39,33,79,56,33,30.03,29.92,29.81,10,10,10,17,8,23,T,2,Rain,132
2013-4-15,68,61,54,54,50,42,72,62,51,29.96,29.90,29.84,10,10,10,16,8,22,T,4,,179
2013-4-16,62,56,49,54,50,46,100,86,72,30.18,30.08,29.88,10,6,0,24,6,31,0.00,8,Fog-Rain,17
2013-4-17,73,60,47,66,54,46,100,87,73,30.19,30.09,29.89,10,8,2,16,8,25,0.00,6,Rain,102
2013-4-18,76,62,48,64,60,52,100,80,60,29.86,29.67,29.57,10,5,0,26,10,40,3.14,6,Fog-Rain,178
2013-4-19,48,41,34,52,36,28,100,82,64,29.99,29.72,29.57,10,8,2,25,13,35,0.68,8,Rain,265
2013-4-20,47,40,33,33,27,24,92,69,45,30.42,30.23,30.00,10,10,10,15,8,23,0.00,3,,300
2013-4-21,54,42,30,29,25,20,72,55,38,30.54,30.45,30.38,10,10,10,15,6,20,0.00,0,,90
2013-4-22,66,50,34,37,31,27,75,52,28,30.36,30.24,30.10,10,10,10,13,4,17,0.00,0,,138
2013-4-23,66,57,47,57,50,40,100,76,52,30.11,29.96,29.80,10,7,2,20,5,28,0.84,5,Rain,195
2013-4-24,53,45,37,57,39,30,100,77,53,30.23,29.97,29.79,10,8,2,23,10,31,0.62,7,Rain,311
2013-4-25,53,44,34,36,31,27,89,64,38,30.38,30.28,30.22,10,10,10,24,8,31,0.00,1,,244
2013-4-26,62,48,34,43,34,31,100,68,36,30.44,30.38,30.32,10,10,10,13,4,20,0.00,1,,146
2013-4-27,63,52,40,52,43,36,93,68,42,30.33,30.19,30.01,10,10,5,16,6,21,0.10,5,Rain,124
2013-4-28,59,56,53,57,55,52,100,97,93,29.97,29.87,29.84,10,6,2,10,4,15,0.39,8,Rain,206
2013-4-29,67,61,54,55,53,51,100,79,58,29.99,29.95,29.89,10,9,5,10,6,16,0.00,6,,212
2013-4-30,80,66,51,58,53,50,96,72,48,30.02,29.96,29.93,10,9,5,14,6,20,0.00,0,,162